Time;durP1;ratioP1;P1;durP2;ratioP2;P2;SDS_P1;SDS_P2;PMS_P1;PMS_P2;Temp;Humidity;BMP_temperature;BMP_pressure;BME280_temperature;BME280_humidity;BME280_pressure;Samples;Min_cycle;Max_cycle;Signal;HPM_P1;HPM_P2
2023/12/13 00:01:14;;;;;;;32.57;16.60;;;;;;;;;;5074222;28;20439;-81
2023/12/13 00:03:42;;;;;;;26.43;16.40;;;;;;;;;;5073863;28;20475;-81
2023/12/13 00:06:09;;;;;;;23.73;15.60;;;;;;;;;;5074547;28;20435;-81
2023/12/13 00:08:35;;;;;;;25.10;15.03;;;;;;;;;;5073483;28;20473;-81
2023/12/13 00:11:03;;;;;;;31.17;16.10;;;;;;;;;;5074132;28;20439;-81
2023/12/13 00:13:29;;;;;;;26.77;15.67;;;;;;;;;;5072962;28;20495;-81
2023/12/13 00:15:56;;;;;;;27.23;15.87;;;;;;;;;;5074050;28;20487;-81
2023/12/13 00:18:22;;;;;;;25.30;15.80;;;;;;;;;;5073093;28;20466;-81
2023/12/13 00:20:50;;;;;;;26.63;16.10;;;;;;;;;;5073694;28;20439;-81
2023/12/13 00:23:16;;;;;;;27.87;16.67;;;;;;;;;;5072260;28;20998;-81
2023/12/13 00:25:43;;;;;;;34.87;15.93;;;;;;;;;;5074176;28;20469;-81
2023/12/13 00:28:12;;;;;;;25.00;15.50;;;;;;;;;;5073790;28;20467;-81
2023/12/13 00:30:38;;;;;;;30.07;16.77;;;;;;;;;;5073817;28;20441;-81
2023/12/13 00:33:04;;;;;;;24.77;15.87;;;;;;;;;;5073610;28;20467;-81
2023/12/13 00:35:31;;;;;;;27.30;16.40;;;;;;;;;;5073802;28;20483;-81
2023/12/13 00:37:58;;;;;;;24.50;15.20;;;;;;;;;;5073666;28;20546;-81
2023/12/13 00:40:27;;;;;;;25.63;16.67;;;;;;;;;;5073669;28;20446;-82
2023/12/13 00:42:55;;;;;;;27.00;16.43;;;;;;;;;;5072898;28;20490;-81
2023/12/13 00:45:22;;;;;;;26.33;15.70;;;;;;;;;;5073448;28;20458;-81
2023/12/13 00:47:49;;;;;;;30.23;17.37;;;;;;;;;;5071404;28;20467;-82
2023/12/13 00:50:16;;;;;;;25.80;16.73;;;;;;;;;;5071521;28;20803;-81
2023/12/13 00:52:42;;;;;;;31.43;17.27;;;;;;;;;;5072900;28;20467;-82
2023/12/13 00:55:11;;;;;;;30.40;15.87;;;;;;;;;;5073177;28;20536;-81
2023/12/13 00:57:38;;;;;;;26.40;16.03;;;;;;;;;;5073306;28;20551;-81
2023/12/13 01:00:05;;;;;;;23.23;15.23;;;;;;;;;;5073122;28;20442;-81
2023/12/13 01:02:31;;;;;;;34.10;16.60;;;;;;;;;;5072852;28;20494;-81
2023/12/13 01:04:58;;;;;;;28.23;18.00;;;;;;;;;;5073513;28;20454;-81
2023/12/13 01:07:24;;;;;;;25.70;16.37;;;;;;;;;;5072668;28;20467;-81
2023/12/13 01:09:51;;;;;;;27.20;16.77;;;;;;;;;;5071847;28;20536;-81
2023/12/13 01:12:20;;;;;;;38.10;17.80;;;;;;;;;;5072852;28;20473;-81
2023/12/13 01:14:48;;;;;;;28.23;15.80;;;;;;;;;;5075381;28;20510;-81
2023/12/13 01:17:15;;;;;;;26.13;16.23;;;;;;;;;;5077136;28;20476;-81
2023/12/13 01:19:42;;;;;;;30.10;16.00;;;;;;;;;;5077037;28;20449;-81
2023/12/13 01:22:09;;;;;;;26.93;16.50;;;;;;;;;;5076842;28;20473;-81
2023/12/13 01:24:35;;;;;;;27.27;17.67;;;;;;;;;;5077176;28;20459;-81
2023/12/13 01:27:02;;;;;;;31.43;16.70;;;;;;;;;;5076691;28;20512;-82
2023/12/13 01:29:30;;;;;;;31.70;17.27;;;;;;;;;;5076829;28;20933;-81
2023/12/13 01:31:57;;;;;;;38.27;17.03;;;;;;;;;;5075181;28;20807;-81
2023/12/13 01:34:23;;;;;;;38.17;16.37;;;;;;;;;;5076814;28;20465;-81
2023/12/13 01:36:49;;;;;;;32.40;16.00;;;;;;;;;;5076184;28;20435;-82
2023/12/13 01:39:16;;;;;;;31.70;17.30;;;;;;;;;;5076969;28;20537;-81
2023/12/13 01:41:43;;;;;;;31.53;16.90;;;;;;;;;;5076131;28;20776;-82
2023/12/13 01:44:10;;;;;;;32.90;17.50;;;;;;;;;;5076575;28;20462;-81
2023/12/13 01:46:40;;;;;;;31.23;17.97;;;;;;;;;;5076270;28;21005;-81
2023/12/13 01:49:08;;;;;;;32.33;17.67;;;;;;;;;;5076869;28;20492;-81
2023/12/13 01:51:35;;;;;;;29.07;16.60;;;;;;;;;;5076187;28;20810;-81
2023/12/13 01:54:04;;;;;;;26.63;17.60;;;;;;;;;;5076280;28;20461;-81
2023/12/13 01:56:30;;;;;;;31.90;17.63;;;;;;;;;;5076409;28;20874;-81
2023/12/13 01:58:58;;;;;;;38.63;19.53;;;;;;;;;;5075205;28;20815;-81
2023/12/13 02:01:25;;;;;;;32.57;19.20;;;;;;;;;;5076776;28;20515;-81
2023/12/13 02:03:53;;;;;;;31.70;19.10;;;;;;;;;;5075941;28;20466;-81
2023/12/13 02:06:20;;;;;;;30.73;19.60;;;;;;;;;;5076598;28;20439;-81
2023/12/13 02:08:46;;;;;;;29.57;17.80;;;;;;;;;;5075402;28;20988;-81
2023/12/13 02:11:13;;;;;;;35.97;18.07;;;;;;;;;;5074871;28;20534;-82
2023/12/13 02:13:40;;;;;;;37.93;18.33;;;;;;;;;;5075374;28;20494;-81
2023/12/13 02:16:07;;;;;;;30.07;18.43;;;;;;;;;;5076326;28;20988;-81
2023/12/13 02:18:33;;;;;;;30.20;16.00;;;;;;;;;;5076160;28;20477;-83
2023/12/13 02:21:02;;;;;;;30.23;17.10;;;;;;;;;;5076552;28;20817;-82
2023/12/13 02:23:29;;;;;;;23.77;14.80;;;;;;;;;;5074351;28;20459;-80
2023/12/13 02:25:58;;;;;;;29.37;17.50;;;;;;;;;;5076273;28;20461;-82
2023/12/13 02:28:26;;;;;;;33.27;17.10;;;;;;;;;;5076387;28;20815;-82
2023/12/13 02:30:54;;;;;;;29.33;16.50;;;;;;;;;;5075956;28;20445;-82
2023/12/13 02:33:23;;;;;;;36.57;18.67;;;;;;;;;;5074516;28;20469;-80
2023/12/13 02:35:50;;;;;;;32.10;16.70;;;;;;;;;;5074622;28;20478;-80
2023/12/13 02:38:16;;;;;;;27.63;16.43;;;;;;;;;;5076130;28;20524;-82
2023/12/13 02:40:44;;;;;;;35.40;16.90;;;;;;;;;;5075932;28;20449;-82
2023/12/13 02:43:11;;;;;;;30.90;16.17;;;;;;;;;;5075474;28;20554;-81
2023/12/13 02:45:39;;;;;;;31.60;15.87;;;;;;;;;;5075808;28;20512;-81
2023/12/13 02:48:05;;;;;;;23.20;15.97;;;;;;;;;;5073948;28;20455;-82
2023/12/13 02:50:36;;;;;;;22.27;14.40;;;;;;;;;;5075702;28;20449;-80
2023/12/13 02:53:03;;;;;;;24.80;16.33;;;;;;;;;;5075004;28;20553;-82
2023/12/13 02:55:29;;;;;;;25.23;14.37;;;;;;;;;;5075466;28;20537;-81
2023/12/13 02:57:57;;;;;;;24.30;14.53;;;;;;;;;;5073573;28;20992;-81
2023/12/13 03:00:24;;;;;;;24.07;15.90;;;;;;;;;;5075315;28;20530;-81
2023/12/13 03:02:50;;;;;;;26.37;16.03;;;;;;;;;;5074230;28;20466;-80
2023/12/13 03:05:17;;;;;;;31.90;17.13;;;;;;;;;;5074960;28;20481;-81
2023/12/13 03:07:43;;;;;;;29.30;15.30;;;;;;;;;;5074716;28;20471;-81
2023/12/13 03:10:10;;;;;;;29.10;15.90;;;;;;;;;;5075215;28;21027;-81
2023/12/13 03:12:36;;;;;;;23.07;15.17;;;;;;;;;;5074694;28;20498;-81
2023/12/13 03:15:05;;;;;;;28.40;16.07;;;;;;;;;;5073393;28;20463;-80
2023/12/13 03:17:32;;;;;;;26.87;15.73;;;;;;;;;;5074571;28;20467;-80
2023/12/13 03:19:59;;;;;;;30.80;17.60;;;;;;;;;;5075226;28;20485;-80
2023/12/13 03:22:25;;;;;;;25.00;16.40;;;;;;;;;;5074578;28;20468;-82
2023/12/13 03:24:52;;;;;;;28.97;17.20;;;;;;;;;;5074735;28;20459;-81
2023/12/13 03:27:18;;;;;;;30.73;17.20;;;;;;;;;;5073361;28;20462;-81
2023/12/13 03:29:45;;;;;;;40.67;19.13;;;;;;;;;;5075002;28;20445;-82
2023/12/13 03:32:14;;;;;;;30.87;19.30;;;;;;;;;;5074304;28;20538;-81
2023/12/13 03:34:40;;;;;;;31.63;20.57;;;;;;;;;;5074349;28;20466;-80
2023/12/13 03:37:07;;;;;;;31.70;18.07;;;;;;;;;;5073307;28;20463;-79
2023/12/13 03:39:36;;;;;;;31.23;19.27;;;;;;;;;;5074552;28;20448;-80
2023/12/13 03:42:02;;;;;;;35.83;18.47;;;;;;;;;;5074421;28;20514;-81
2023/12/13 03:44:29;;;;;;;33.27;18.40;;;;;;;;;;5074572;28;20534;-80
2023/12/13 03:46:56;;;;;;;36.90;20.10;;;;;;;;;;5073970;28;20474;-80
2023/12/13 03:49:23;;;;;;;33.80;20.27;;;;;;;;;;5074543;28;20447;-81
2023/12/13 03:51:50;;;;;;;33.63;18.93;;;;;;;;;;5073768;28;20450;-81
2023/12/13 03:54:17;;;;;;;31.33;19.23;;;;;;;;;;5074014;28;20457;-81
2023/12/13 03:56:46;;;;;;;39.43;20.50;;;;;;;;;;5073767;28;20474;-82
2023/12/13 03:59:12;;;;;;;32.00;19.13;;;;;;;;;;5072770;28;20450;-81
2023/12/13 04:01:39;;;;;;;28.60;19.03;;;;;;;;;;5073416;28;20530;-81
2023/12/13 04:04:05;;;;;;;35.20;18.70;;;;;;;;;;5074271;28;20455;-82
2023/12/13 04:06:33;;;;;;;32.23;19.03;;;;;;;;;;5073990;28;20808;-82
2023/12/13 04:08:59;;;;;;;34.63;19.20;;;;;;;;;;5074089;28;20550;-82
2023/12/13 04:11:26;;;;;;;35.93;19.87;;;;;;;;;;5073715;28;20957;-82
2023/12/13 04:13:52;;;;;;;35.47;19.50;;;;;;;;;;5073205;28;20546;-81
2023/12/13 04:16:18;;;;;;;31.80;19.23;;;;;;;;;;5073766;28;20478;-81
2023/12/13 04:18:45;;;;;;;39.63;19.43;;;;;;;;;;5073084;28;20567;-82
2023/12/13 04:21:12;;;;;;;38.07;21.37;;;;;;;;;;5073942;28;20442;-81
2023/12/13 04:23:40;;;;;;;45.93;22.00;;;;;;;;;;5073054;28;21000;-81
2023/12/13 04:26:08;;;;;;;37.30;20.03;;;;;;;;;;5073855;28;20525;-81
2023/12/13 04:28:35;;;;;;;35.27;19.90;;;;;;;;;;5073098;28;21079;-81
2023/12/13 04:31:02;;;;;;;40.07;20.37;;;;;;;;;;5072280;28;20447;-82
2023/12/13 04:33:31;;;;;;;31.40;20.53;;;;;;;;;;5072760;28;20847;-82
2023/12/13 04:35:58;;;;;;;38.40;20.53;;;;;;;;;;5073409;28;20567;-80
2023/12/13 04:38:25;;;;;;;40.23;21.57;;;;;;;;;;5072959;28;20471;-82
2023/12/13 04:40:53;;;;;;;37.83;20.93;;;;;;;;;;5073407;28;20445;-80
2023/12/13 04:43:19;;;;;;;46.77;21.07;;;;;;;;;;5072853;28;20477;-82
2023/12/13 04:45:46;;;;;;;39.33;20.97;;;;;;;;;;5073504;28;20457;-82
2023/12/13 04:48:12;;;;;;;41.87;22.47;;;;;;;;;;5072636;28;20846;-81
2023/12/13 04:50:39;;;;;;;37.17;20.77;;;;;;;;;;5073618;28;20434;-81
2023/12/13 04:53:05;;;;;;;37.73;22.17;;;;;;;;;;5071422;28;20546;-81
2023/12/13 04:55:32;;;;;;;37.33;22.30;;;;;;;;;;5073511;28;20474;-81
2023/12/13 04:58:01;;;;;;;34.53;20.57;;;;;;;;;;5073092;28;20466;-81
2023/12/13 05:00:27;;;;;;;49.83;21.50;;;;;;;;;;5073553;28;20439;-81
2023/12/13 05:02:54;;;;;;;37.27;21.10;;;;;;;;;;5073001;28;20841;-82
2023/12/13 05:05:21;;;;;;;46.10;21.27;;;;;;;;;;5073324;28;20502;-81
2023/12/13 05:07:47;;;;;;;44.97;21.57;;;;;;;;;;5072805;28;20466;-80
2023/12/13 05:10:15;;;;;;;37.63;22.27;;;;;;;;;;5073557;28;20435;-81
2023/12/13 05:12:42;;;;;;;46.20;22.10;;;;;;;;;;5072969;28;20474;-82
2023/12/13 05:15:10;;;;;;;49.37;22.83;;;;;;;;;;5073738;28;20459;-80
2023/12/13 05:17:37;;;;;;;42.93;21.90;;;;;;;;;;5073406;28;20494;-80
2023/12/13 05:20:04;;;;;;;47.77;22.87;;;;;;;;;;5073885;28;20435;-79
2023/12/13 05:22:30;;;;;;;42.90;22.50;;;;;;;;;;5073524;28;20475;-80
2023/12/13 05:24:56;;;;;;;40.90;21.50;;;;;;;;;;5073764;28;20542;-82
2023/12/13 05:27:23;;;;;;;41.87;21.00;;;;;;;;;;5072878;28;20849;-81
2023/12/13 05:29:50;;;;;;;37.07;21.80;;;;;;;;;;5074064;28;20435;-81
2023/12/13 05:32:17;;;;;;;48.67;21.87;;;;;;;;;;5072598;28;20467;-82
2023/12/13 05:34:44;;;;;;;43.80;22.00;;;;;;;;;;5073867;28;20461;-80
2023/12/13 05:37:11;;;;;;;50.33;22.40;;;;;;;;;;5073167;28;20471;-80
2023/12/13 05:39:37;;;;;;;45.73;22.40;;;;;;;;;;5073625;28;20550;-80
2023/12/13 05:42:04;;;;;;;44.07;21.30;;;;;;;;;;5073334;28;20516;-80
2023/12/13 05:44:31;;;;;;;35.23;20.20;;;;;;;;;;5072273;28;20459;-80
2023/12/13 05:46:59;;;;;;;37.33;22.00;;;;;;;;;;5070519;28;21030;-80
2023/12/13 05:49:28;;;;;;;38.67;20.77;;;;;;;;;;5072963;28;20481;-80
2023/12/13 05:51:54;;;;;;;40.80;21.10;;;;;;;;;;5071884;28;20451;-80
2023/12/13 05:54:20;;;;;;;46.17;22.80;;;;;;;;;;5073532;28;20553;-79
2023/12/13 05:56:47;;;;;;;43.60;21.40;;;;;;;;;;5073071;28;20574;-80
2023/12/13 05:59:14;;;;;;;38.90;19.10;;;;;;;;;;5073911;28;20471;-80
2023/12/13 06:01:40;;;;;;;42.93;20.50;;;;;;;;;;5075958;28;20467;-80
2023/12/13 06:04:07;;;;;;;37.03;20.50;;;;;;;;;;5077588;28;20460;-80
2023/12/13 06:06:34;;;;;;;40.30;21.07;;;;;;;;;;5076985;28;20438;-80
2023/12/13 06:09:02;;;;;;;38.40;22.20;;;;;;;;;;5076446;28;20549;-81
2023/12/13 06:11:30;;;;;;;35.50;20.57;;;;;;;;;;5077804;28;20453;-80
2023/12/13 06:13:57;;;;;;;34.27;19.50;;;;;;;;;;5074986;28;20819;-80
2023/12/13 06:16:25;;;;;;;40.17;21.57;;;;;;;;;;5076262;28;20573;-81
2023/12/13 06:18:52;;;;;;;45.47;23.40;;;;;;;;;;5075505;28;20470;-80
2023/12/13 06:21:19;;;;;;;46.63;22.37;;;;;;;;;;5076405;28;20449;-80
2023/12/13 06:23:47;;;;;;;44.57;22.50;;;;;;;;;;5075781;28;21017;-80
2023/12/13 06:26:13;;;;;;;34.83;20.07;;;;;;;;;;5076242;28;20805;-80
2023/12/13 06:28:40;;;;;;;48.40;22.50;;;;;;;;;;5076040;28;20471;-80
2023/12/13 06:31:06;;;;;;;46.30;22.47;;;;;;;;;;5076246;28;20955;-82
2023/12/13 06:33:33;;;;;;;40.87;20.77;;;;;;;;;;5075922;28;20471;-81
2023/12/13 06:35:59;;;;;;;47.63;21.60;;;;;;;;;;5075867;28;20504;-80
2023/12/13 06:38:25;;;;;;;46.90;20.47;;;;;;;;;;5074497;28;20490;-80
2023/12/13 06:40:53;;;;;;;45.60;20.77;;;;;;;;;;5076073;28;20533;-81
2023/12/13 06:43:20;;;;;;;44.63;23.43;;;;;;;;;;5075636;28;20822;-81
2023/12/13 06:45:46;;;;;;;41.80;21.97;;;;;;;;;;5075769;28;20459;-81
2023/12/13 06:48:14;;;;;;;40.70;21.20;;;;;;;;;;5075688;28;20462;-82
2023/12/13 06:50:41;;;;;;;43.37;21.60;;;;;;;;;;5075262;28;20814;-81
2023/12/13 06:53:09;;;;;;;42.00;20.77;;;;;;;;;;5074995;28;20471;-81
2023/12/13 06:55:36;;;;;;;37.83;18.90;;;;;;;;;;5074116;28;20499;-81
2023/12/13 06:58:04;;;;;;;38.10;20.83;;;;;;;;;;5074865;28;20481;-81
2023/12/13 07:00:30;;;;;;;49.90;23.70;;;;;;;;;;5075959;28;20435;-81
2023/12/13 07:02:57;;;;;;;45.23;21.50;;;;;;;;;;5074958;28;20823;-80
2023/12/13 07:05:23;;;;;;;33.00;19.37;;;;;;;;;;5073971;28;20458;-81
2023/12/13 07:07:51;;;;;;;36.90;19.67;;;;;;;;;;5073713;28;20555;-81
2023/12/13 07:10:17;;;;;;;36.27;19.53;;;;;;;;;;5075486;28;20481;-82
2023/12/13 07:12:44;;;;;;;31.70;16.40;;;;;;;;;;5074975;28;20540;-81
2023/12/13 07:15:13;;;;;;;32.83;16.37;;;;;;;;;;5074827;28;20833;-80
2023/12/13 07:17:42;;;;;;;31.03;18.70;;;;;;;;;;5074164;28;20980;-81
2023/12/13 07:20:10;;;;;;;29.60;18.70;;;;;;;;;;5074108;28;20474;-81
2023/12/13 07:22:36;;;;;;;29.30;17.40;;;;;;;;;;5074798;28;20498;-81
2023/12/13 07:25:06;;;;;;;33.40;17.47;;;;;;;;;;5075239;28;20463;-82
2023/12/13 07:27:33;;;;;;;28.63;17.03;;;;;;;;;;5074120;28;20474;-81
2023/12/13 07:30:01;;;;;;;25.93;16.53;;;;;;;;;;5074686;28;20944;-79
2023/12/13 07:32:29;;;;;;;31.50;15.57;;;;;;;;;;5074252;28;20554;-82
2023/12/13 07:34:55;;;;;;;25.17;14.37;;;;;;;;;;5073454;28;20467;-79
2023/12/13 07:37:22;;;;;;;21.73;13.57;;;;;;;;;;5072766;28;20470;-79
2023/12/13 07:39:48;;;;;;;23.27;14.23;;;;;;;;;;5074667;28;20438;-81
2023/12/13 07:42:15;;;;;;;23.73;13.97;;;;;;;;;;5074003;28;20474;-81
2023/12/13 07:44:43;;;;;;;25.93;13.93;;;;;;;;;;5074372;28;21019;-79
2023/12/13 07:47:10;;;;;;;24.00;14.20;;;;;;;;;;5074630;28;20474;-81
2023/12/13 07:49:38;;;;;;;21.40;13.60;;;;;;;;;;5075744;28;20439;-80
2023/12/13 07:52:06;;;;;;;24.80;15.93;;;;;;;;;;5074407;28;20537;-80
2023/12/13 07:54:33;;;;;;;25.23;13.83;;;;;;;;;;5074378;28;20827;-80
2023/12/13 07:56:59;;;;;;;29.17;13.03;;;;;;;;;;5074616;28;20455;-80
2023/12/13 07:59:26;;;;;;;21.20;13.10;;;;;;;;;;5074824;28;20517;-82
2023/12/13 08:01:53;;;;;;;20.13;12.13;;;;;;;;;;5075727;28;20439;-80
2023/12/13 08:04:20;;;;;;;26.50;13.03;;;;;;;;;;5077117;28;20461;-80
2023/12/13 08:06:47;;;;;;;20.20;13.50;;;;;;;;;;5077011;28;20439;-80
2023/12/13 08:09:15;;;;;;;20.63;13.33;;;;;;;;;;5076870;28;20822;-80
2023/12/13 08:11:43;;;;;;;19.90;12.90;;;;;;;;;;5078396;28;20474;-80
2023/12/13 08:14:09;;;;;;;19.43;11.93;;;;;;;;;;5078588;28;20462;-80
2023/12/13 08:16:36;;;;;;;22.50;13.30;;;;;;;;;;5072998;28;20434;-80
2023/12/13 08:19:02;;;;;;;21.00;12.57;;;;;;;;;;5074493;28;20435;-80
2023/12/13 08:21:29;;;;;;;22.13;13.13;;;;;;;;;;5074304;28;20453;-81
2023/12/13 08:23:57;;;;;;;20.37;11.67;;;;;;;;;;5072758;28;20475;-80
2023/12/13 08:26:25;;;;;;;16.97;11.30;;;;;;;;;;5074191;28;20534;-79
2023/12/13 08:28:51;;;;;;;20.53;11.80;;;;;;;;;;5073625;28;20471;-80
2023/12/13 08:31:18;;;;;;;18.63;11.30;;;;;;;;;;5074018;28;20439;-80
2023/12/13 08:33:45;;;;;;;16.77;11.23;;;;;;;;;;5074024;28;20463;-80
2023/12/13 08:36:12;;;;;;;22.93;12.00;;;;;;;;;;5072570;28;20446;-82
2023/12/13 08:38:42;;;;;;;26.43;12.53;;;;;;;;;;5073047;28;21001;-80
2023/12/13 08:41:11;;;;;;;19.00;11.80;;;;;;;;;;5073569;28;20447;-80
2023/12/13 08:43:38;;;;;;;14.20;10.00;;;;;;;;;;5073231;28;20466;-81
2023/12/13 08:46:05;;;;;;;14.40;10.40;;;;;;;;;;5073760;28;20443;-79
2023/12/13 08:48:31;;;;;;;16.17;10.27;;;;;;;;;;5074178;28;20470;-80
2023/12/13 08:50:58;;;;;;;19.90;11.10;;;;;;;;;;5073867;28;20438;-81
2023/12/13 08:53:25;;;;;;;19.50;10.60;;;;;;;;;;5072709;28;20470;-80
2023/12/13 08:55:51;;;;;;;17.00;11.50;;;;;;;;;;5073484;28;21003;-80
2023/12/13 08:58:19;;;;;;;17.90;11.20;;;;;;;;;;5072828;28;20516;-79
2023/12/13 09:00:45;;;;;;;19.80;11.63;;;;;;;;;;5074263;28;20936;-79
2023/12/13 09:03:12;;;;;;;20.47;12.00;;;;;;;;;;5075603;28;20479;-79
2023/12/13 09:05:39;;;;;;;22.00;11.07;;;;;;;;;;5074965;28;20457;-79
2023/12/13 09:08:05;;;;;;;17.10;11.30;;;;;;;;;;5075304;28;20467;-79
2023/12/13 09:10:34;;;;;;;18.60;11.80;;;;;;;;;;5075430;28;20439;-79
2023/12/13 09:13:01;;;;;;;15.77;11.03;;;;;;;;;;5073774;28;20497;-79
2023/12/13 09:15:29;;;;;;;20.20;11.20;;;;;;;;;;5075693;28;20494;-79
2023/12/13 09:17:55;;;;;;;17.17;11.70;;;;;;;;;;5076045;28;20620;-79
2023/12/13 09:20:22;;;;;;;16.57;10.40;;;;;;;;;;5076798;28;20439;-79
2023/12/13 09:22:48;;;;;;;17.10;10.37;;;;;;;;;;5075005;28;20475;-79
2023/12/13 09:25:15;;;;;;;18.30;11.23;;;;;;;;;;5073809;28;20457;-81
2023/12/13 09:27:42;;;;;;;16.77;10.37;;;;;;;;;;5073677;28;20552;-80
2023/12/13 09:30:09;;;;;;;14.83;10.10;;;;;;;;;;5074268;28;20521;-81
2023/12/13 09:32:37;;;;;;;15.20;10.50;;;;;;;;;;5073558;28;20553;-81
2023/12/13 09:35:04;;;;;;;15.90;9.40;;;;;;;;;;5074988;28;20473;-81
2023/12/13 09:37:30;;;;;;;15.53;10.70;;;;;;;;;;5077014;28;20471;-81
2023/12/13 09:39:57;;;;;;;17.20;9.77;;;;;;;;;;5077680;28;20455;-81
2023/12/13 09:42:25;;;;;;;12.13;8.43;;;;;;;;;;5076799;28;20466;-80
2023/12/13 09:44:52;;;;;;;14.27;8.90;;;;;;;;;;5077410;28;20459;-82
2023/12/13 09:47:21;;;;;;;14.80;8.77;;;;;;;;;;5077155;28;20888;-82
2023/12/13 09:49:49;;;;;;;14.67;9.87;;;;;;;;;;5077601;28;20439;-81
2023/12/13 09:52:18;;;;;;;12.63;8.47;;;;;;;;;;5076121;28;20462;-81
2023/12/13 09:54:46;;;;;;;14.53;9.00;;;;;;;;;;5077276;28;20467;-81
2023/12/13 09:57:12;;;;;;;13.47;8.70;;;;;;;;;;5076147;28;20470;-81
2023/12/13 09:59:39;;;;;;;14.37;9.23;;;;;;;;;;5078715;28;20517;-79
2023/12/13 10:02:09;;;;;;;17.07;9.00;;;;;;;;;;5078123;28;20462;-81
2023/12/13 10:04:36;;;;;;;11.70;7.90;;;;;;;;;;5076982;28;20459;-81
2023/12/13 10:07:05;;;;;;;16.37;9.40;;;;;;;;;;5075495;28;20467;-81
2023/12/13 10:09:32;;;;;;;11.90;7.97;;;;;;;;;;5077465;28;20510;-81
2023/12/13 10:11:59;;;;;;;13.70;8.60;;;;;;;;;;5077141;28;20462;-81
2023/12/13 10:14:26;;;;;;;11.83;8.03;;;;;;;;;;5075518;28;21009;-81
2023/12/13 10:16:53;;;;;;;16.90;8.90;;;;;;;;;;5076378;28;20529;-82
2023/12/13 10:19:20;;;;;;;9.10;7.40;;;;;;;;;;5076975;28;20501;-82
2023/12/13 10:21:48;;;;;;;12.33;8.37;;;;;;;;;;5075752;28;20446;-81
2023/12/13 10:24:16;;;;;;;11.20;8.00;;;;;;;;;;5076383;28;20477;-81
2023/12/13 10:26:43;;;;;;;11.37;8.43;;;;;;;;;;5076105;28;20441;-81
2023/12/13 10:29:09;;;;;;;9.07;7.80;;;;;;;;;;5076322;28;20534;-81
2023/12/13 10:31:36;;;;;;;10.43;7.10;;;;;;;;;;5075861;28;20439;-79
2023/12/13 10:34:02;;;;;;;8.70;7.40;;;;;;;;;;5076090;28;20466;-79
2023/12/13 10:36:29;;;;;;;8.80;6.60;;;;;;;;;;5075710;28;20467;-79
2023/12/13 10:38:56;;;;;;;10.13;7.77;;;;;;;;;;5075319;28;20485;-79
2023/12/13 10:41:26;;;;;;;9.63;7.20;;;;;;;;;;5076050;28;21000;-81
2023/12/13 10:43:54;;;;;;;9.57;6.30;;;;;;;;;;5075559;28;20471;-80
2023/12/13 10:46:22;;;;;;;10.20;6.67;;;;;;;;;;5076183;28;20521;-79
2023/12/13 10:48:49;;;;;;;11.53;7.13;;;;;;;;;;5075584;28;20471;-80
2023/12/13 10:51:16;;;;;;;10.87;7.60;;;;;;;;;;5076030;28;20579;-79
2023/12/13 10:53:43;;;;;;;9.47;6.37;;;;;;;;;;5077188;28;20530;-80
2023/12/13 10:56:09;;;;;;;9.70;6.30;;;;;;;;;;5076034;28;20443;-80
2023/12/13 10:58:38;;;;;;;12.07;6.53;;;;;;;;;;5074932;28;20479;-79
2023/12/13 11:01:05;;;;;;;10.77;8.17;;;;;;;;;;5076407;28;20497;-79
2023/12/13 11:03:36;;;;;;;9.60;8.10;;;;;;;;;;5075826;28;20473;-80
2023/12/13 11:06:03;;;;;;;14.23;7.80;;;;;;;;;;5076143;28;20450;-80
2023/12/13 11:08:37;;;;;;;10.17;6.97;;;;;;;;;;5073640;28;20490;-80
2023/12/13 11:11:04;;;;;;;9.73;6.43;;;;;;;;;;5075244;28;20866;-80
2023/12/13 11:13:30;;;;;;;10.20;6.97;;;;;;;;;;5076399;28;20471;-81
2023/12/13 11:15:59;;;;;;;10.23;6.40;;;;;;;;;;5075310;28;20546;-80
2023/12/13 11:18:25;;;;;;;8.13;6.07;;;;;;;;;;5075073;28;20475;-80
2023/12/13 11:20:54;;;;;;;9.77;6.63;;;;;;;;;;5075134;28;20916;-82
2023/12/13 11:23:24;;;;;;;9.23;6.73;;;;;;;;;;5073405;28;20478;-80
2023/12/13 11:25:51;;;;;;;8.30;6.93;;;;;;;;;;5074925;28;20451;-80
2023/12/13 11:28:22;;;;;;;10.63;6.53;;;;;;;;;;5074154;28;20473;-81
2023/12/13 11:30:48;;;;;;;10.80;7.73;;;;;;;;;;5075028;28;20908;-83
2023/12/13 11:33:17;;;;;;;10.30;6.80;;;;;;;;;;5074259;28;20882;-81
2023/12/13 11:35:46;;;;;;;7.80;5.70;;;;;;;;;;5074880;28;20818;-82
2023/12/13 11:38:13;;;;;;;8.20;6.17;;;;;;;;;;5074545;28;20573;-81
2023/12/13 11:40:40;;;;;;;10.13;6.93;;;;;;;;;;5075038;28;20439;-82
2023/12/13 11:43:07;;;;;;;10.47;7.20;;;;;;;;;;5074343;28;21008;-81
2023/12/13 11:45:33;;;;;;;16.90;10.17;;;;;;;;;;5074979;28;20543;-80
2023/12/13 11:48:01;;;;;;;8.10;5.70;;;;;;;;;;5073265;28;20463;-82
2023/12/13 11:50:29;;;;;;;8.00;5.67;;;;;;;;;;5074427;28;20445;-80
2023/12/13 11:52:58;;;;;;;7.63;5.87;;;;;;;;;;5073704;28;20488;-81
2023/12/13 11:55:26;;;;;;;6.07;5.47;;;;;;;;;;5074635;28;20981;-81
2023/12/13 11:57:53;;;;;;;9.67;6.13;;;;;;;;;;5074689;28;20501;-82
2023/12/13 12:00:20;;;;;;;12.77;6.93;;;;;;;;;;5075056;28;20446;-81
2023/12/13 12:02:47;;;;;;;8.20;5.87;;;;;;;;;;5073889;28;20842;-82
2023/12/13 12:05:14;;;;;;;7.90;5.33;;;;;;;;;;5075059;28;20547;-82
2023/12/13 12:07:42;;;;;;;7.13;5.67;;;;;;;;;;5073963;28;20481;-83
2023/12/13 12:10:11;;;;;;;6.90;4.90;;;;;;;;;;5074036;28;20435;-82
2023/12/13 12:12:37;;;;;;;8.13;5.30;;;;;;;;;;5073873;28;20481;-82
2023/12/13 12:15:07;;;;;;;6.00;4.83;;;;;;;;;;5074106;28;20461;-81
2023/12/13 12:17:33;;;;;;;7.03;4.30;;;;;;;;;;5073953;28;20893;-82
2023/12/13 12:20:00;;;;;;;6.40;4.80;;;;;;;;;;5074217;28;20478;-82
2023/12/13 12:22:26;;;;;;;8.43;5.93;;;;;;;;;;5073455;28;20498;-82
2023/12/13 12:24:54;;;;;;;5.40;4.80;;;;;;;;;;5075155;28;20554;-82
2023/12/13 12:27:23;;;;;;;7.07;5.33;;;;;;;;;;5074259;28;20473;-81
2023/12/13 12:29:50;;;;;;;6.07;4.93;;;;;;;;;;5076986;28;20446;-81
2023/12/13 12:32:17;;;;;;;6.40;4.73;;;;;;;;;;5075543;28;20462;-81
2023/12/13 12:34:47;;;;;;;5.77;4.87;;;;;;;;;;5074137;28;20463;-82
2023/12/13 12:37:14;;;;;;;6.93;5.23;;;;;;;;;;5072457;28;20467;-81
2023/12/13 12:39:41;;;;;;;7.10;5.30;;;;;;;;;;5073278;28;20557;-82
2023/12/13 12:42:09;;;;;;;6.57;5.13;;;;;;;;;;5073760;28;20533;-81
2023/12/13 12:44:39;;;;;;;5.83;5.23;;;;;;;;;;5075663;28;20462;-82
2023/12/13 12:47:05;;;;;;;6.97;5.13;;;;;;;;;;5079187;28;20482;-81
2023/12/13 12:49:32;;;;;;;6.67;5.97;;;;;;;;;;5074221;28;20439;-80
2023/12/13 12:51:58;;;;;;;7.30;5.83;;;;;;;;;;5073848;28;21015;-80
2023/12/13 12:54:25;;;;;;;7.73;6.57;;;;;;;;;;5073684;28;20542;-80
2023/12/13 12:56:52;;;;;;;7.50;6.30;;;;;;;;;;5072403;28;20529;-80
2023/12/13 12:59:21;;;;;;;8.40;5.57;;;;;;;;;;5073762;28;20833;-81
2023/12/13 13:01:48;;;;;;;6.93;6.20;;;;;;;;;;5076303;28;20455;-80
2023/12/13 13:04:14;;;;;;;8.23;6.73;;;;;;;;;;5078175;28;20491;-80
2023/12/13 13:06:42;;;;;;;7.73;6.90;;;;;;;;;;5076698;28;20443;-80
2023/12/13 13:09:08;;;;;;;9.10;7.50;;;;;;;;;;5080045;28;20473;-80
2023/12/13 13:11:35;;;;;;;8.47;6.67;;;;;;;;;;5083259;28;20482;-80
2023/12/13 13:14:02;;;;;;;11.00;8.33;;;;;;;;;;5081359;28;20546;-80
2023/12/13 13:16:30;;;;;;;11.23;8.03;;;;;;;;;;5081422;28;20983;-79
2023/12/13 13:18:57;;;;;;;9.63;7.70;;;;;;;;;;5079620;28;20491;-80
2023/12/13 13:21:23;;;;;;;10.47;7.37;;;;;;;;;;5080432;28;20814;-80
2023/12/13 13:23:50;;;;;;;10.83;8.03;;;;;;;;;;5081055;28;20931;-81
2023/12/13 13:26:16;;;;;;;9.77;7.43;;;;;;;;;;5081293;28;20445;-80
2023/12/13 13:28:43;;;;;;;10.70;8.40;;;;;;;;;;5081379;28;21072;-80
2023/12/13 13:31:11;;;;;;;8.33;7.37;;;;;;;;;;5082037;28;20530;-81
2023/12/13 13:33:39;;;;;;;9.43;7.73;;;;;;;;;;5082562;28;20475;-80
2023/12/13 13:36:06;;;;;;;8.70;7.53;;;;;;;;;;5081472;28;20453;-80
2023/12/13 13:38:32;;;;;;;9.43;7.90;;;;;;;;;;5080210;28;20923;-79
2023/12/13 13:40:59;;;;;;;10.07;7.20;;;;;;;;;;5081489;28;20502;-79
2023/12/13 13:43:26;;;;;;;13.23;7.33;;;;;;;;;;5081079;28;20498;-80
2023/12/13 13:45:52;;;;;;;8.33;7.00;;;;;;;;;;5081930;28;20467;-80
2023/12/13 13:48:20;;;;;;;8.33;7.20;;;;;;;;;;5081712;28;20493;-80
2023/12/13 13:50:48;;;;;;;9.63;7.43;;;;;;;;;;5080634;28;20450;-80
2023/12/13 13:53:15;;;;;;;9.17;6.43;;;;;;;;;;5080257;28;21006;-79
2023/12/13 13:55:41;;;;;;;10.03;6.57;;;;;;;;;;5077916;28;20538;-81
2023/12/13 13:58:07;;;;;;;8.90;7.17;;;;;;;;;;5076549;28;20474;-80
2023/12/13 14:00:34;;;;;;;9.77;8.00;;;;;;;;;;5076674;28;20478;-80
2023/12/13 14:03:01;;;;;;;10.63;6.57;;;;;;;;;;5076817;28;20471;-80
2023/12/13 14:05:34;;;;;;;8.77;7.33;;;;;;;;;;5076552;28;20459;-80
2023/12/13 14:08:02;;;;;;;6.37;5.70;;;;;;;;;;5076575;28;20995;-80
2023/12/13 14:10:28;;;;;;;7.30;6.40;;;;;;;;;;5076391;28;20526;-80
2023/12/13 14:12:55;;;;;;;7.43;6.73;;;;;;;;;;5076789;28;20557;-80
2023/12/13 14:15:21;;;;;;;6.13;5.07;;;;;;;;;;5076370;28;20459;-80
2023/12/13 14:17:48;;;;;;;7.30;6.50;;;;;;;;;;5075253;28;20469;-80
2023/12/13 14:20:14;;;;;;;6.87;6.00;;;;;;;;;;5075927;28;21008;-80
2023/12/13 14:22:41;;;;;;;6.33;5.63;;;;;;;;;;5076321;28;20557;-80